createdAt,value
2022-10-30T00:01:46.899Z,17.30
2022-10-30T00:04:20.198Z,17.30
2022-10-30T00:06:51.202Z,17.30
2022-10-30T00:09:23.923Z,17.30
2022-10-30T00:11:54.015Z,17.30
2022-10-30T00:14:24.117Z,17.30
2022-10-30T00:16:54.273Z,17.20
2022-10-30T00:19:24.502Z,17.30
2022-10-30T00:24:27.660Z,17.30
2022-10-30T00:26:57.780Z,17.40
2022-10-30T00:29:27.921Z,17.40
2022-10-30T00:32:08.571Z,17.30
2022-10-30T00:34:41.292Z,17.40
2022-10-30T00:37:11.342Z,17.40
2022-10-30T00:39:47.187Z,17.30
2022-10-30T00:42:19.860Z,17.20
2022-10-30T00:44:53.536Z,17.10
2022-10-30T00:47:31.639Z,17.10
2022-10-30T00:50:12.838Z,17.00
2022-10-30T00:52:49.218Z,16.90
2022-10-30T00:55:27.929Z,16.90
2022-10-30T00:57:58.533Z,16.80
2022-10-30T01:00:36.292Z,16.90
2022-10-30T01:03:07.795Z,16.90
2022-10-30T01:05:39.661Z,16.90
2022-10-30T01:08:09.853Z,16.90
2022-10-30T01:10:50.933Z,16.70
2022-10-30T01:13:28.620Z,16.70
2022-10-30T01:16:36.178Z,16.70
2022-10-30T01:19:19.060Z,16.50
2022-10-30T01:22:14.188Z,16.40
2022-10-30T01:25:07.086Z,16.50
2022-10-30T01:27:54.348Z,16.40
2022-10-30T01:30:51.166Z,16.30
2022-10-30T01:33:39.426Z,16.30
2022-10-30T01:36:23.188Z,16.30
2022-10-30T01:38:59.431Z,16.30
2022-10-30T01:41:29.620Z,16.30
2022-10-30T01:44:11.541Z,16.30
2022-10-30T01:47:05.711Z,16.30
2022-10-30T01:50:19.288Z,16.20
2022-10-30T01:53:02.937Z,16.10
2022-10-30T01:55:49.060Z,16.00
2022-10-30T01:58:26.200Z,16.10
2022-10-30T02:01:02.187Z,16.00
2022-10-30T02:03:39.720Z,16.00
2022-10-30T02:06:10.129Z,15.90
2022-10-30T02:08:43.098Z,15.80
2022-10-30T02:11:13.770Z,15.70
2022-10-30T02:13:44.134Z,15.60
2022-10-30T02:16:19.138Z,15.40
2022-10-30T02:18:49.250Z,15.20
2022-10-30T02:21:22.098Z,15.20
2022-10-30T02:23:52.164Z,15.20
2022-10-30T02:26:22.214Z,15.10
2022-10-30T02:28:52.459Z,15.10
2022-10-30T02:31:22.824Z,15.10
2022-10-30T02:34:01.475Z,15.00
2022-10-30T02:36:41.809Z,14.90
2022-10-30T02:39:15.495Z,14.90
2022-10-30T02:41:48.624Z,15.00
2022-10-30T02:44:21.526Z,15.00
2022-10-30T02:46:57.082Z,15.00
2022-10-30T02:49:27.318Z,15.00
2022-10-30T02:52:02.430Z,14.90
2022-10-30T02:54:32.591Z,14.80
2022-10-30T02:57:05.289Z,14.70
2022-10-30T02:59:35.386Z,14.60
2022-10-30T03:02:05.480Z,14.50
2022-10-30T03:04:35.573Z,14.40
2022-10-30T03:07:10.737Z,14.30
2022-10-30T03:09:40.823Z,14.30
2022-10-30T03:12:11.122Z,14.20
2022-10-30T03:14:43.802Z,14.20
2022-10-30T03:17:13.897Z,14.10
2022-10-30T03:19:47.021Z,14.10
2022-10-30T03:22:19.647Z,14.00
2022-10-30T03:24:49.843Z,13.90
2022-10-30T03:27:20.267Z,13.90
2022-10-30T03:29:50.387Z,13.80
2022-10-30T03:32:20.578Z,13.80
2022-10-30T03:34:50.718Z,13.80
2022-10-30T03:37:28.519Z,13.80
2022-10-30T03:40:03.709Z,13.90
2022-10-30T03:42:33.843Z,13.90
2022-10-30T03:45:03.931Z,13.90
2022-10-30T03:47:33.989Z,13.80
2022-10-30T03:50:07.749Z,13.80
2022-10-30T03:52:42.919Z,13.70
2022-10-30T03:55:13.222Z,13.70
2022-10-30T03:57:43.285Z,13.70
2022-10-30T04:00:18.001Z,13.60
2022-10-30T04:02:49.527Z,13.40
2022-10-30T04:05:27.393Z,13.40
2022-10-30T04:08:05.931Z,13.40
2022-10-30T04:10:41.800Z,13.40
2022-10-30T04:13:29.717Z,13.60
2022-10-30T04:15:59.920Z,13.60
2022-10-30T04:18:33.463Z,13.70
2022-10-30T04:21:06.462Z,13.80
2022-10-30T04:23:39.191Z,13.80
2022-10-30T04:26:09.328Z,13.70
2022-10-30T04:28:39.446Z,13.50
2022-10-30T04:31:09.601Z,13.40
2022-10-30T04:33:47.330Z,13.30
2022-10-30T04:36:18.147Z,13.30
2022-10-30T04:38:52.924Z,13.50
2022-10-30T04:41:23.093Z,13.30
2022-10-30T04:43:53.222Z,13.20
2022-10-30T04:46:23.335Z,13.50
2022-10-30T04:48:59.231Z,13.50
2022-10-30T04:51:36.786Z,13.40
2022-10-30T04:54:09.666Z,13.50
2022-10-30T04:56:39.772Z,13.40
2022-10-30T04:59:12.810Z,13.30
2022-10-30T05:01:42.953Z,13.20
2022-10-30T05:04:13.083Z,13.10
2022-10-30T05:06:43.231Z,13.10
2022-10-30T05:09:15.897Z,13.30
2022-10-30T05:11:46.006Z,13.60
2022-10-30T05:14:16.066Z,13.40
2022-10-30T05:16:49.127Z,13.30
2022-10-30T05:19:19.224Z,13.30
2022-10-30T05:21:49.349Z,13.30
2022-10-30T05:24:22.065Z,13.20
2022-10-30T05:26:52.167Z,13.20
2022-10-30T05:29:22.290Z,13.10
2022-10-30T05:31:52.619Z,13.10
2022-10-30T05:34:27.949Z,13.10
2022-10-30T05:36:58.011Z,13.10
2022-10-30T05:39:30.688Z,13.20
2022-10-30T05:42:09.805Z,13.40
2022-10-30T05:45:02.282Z,13.50
2022-10-30T05:47:32.716Z,13.70
2022-10-30T05:50:06.150Z,13.70
2022-10-30T05:52:36.624Z,13.70
2022-10-30T05:55:10.335Z,13.80
2022-10-30T05:57:45.683Z,13.70
2022-10-30T06:00:23.058Z,13.40
2022-10-30T06:02:53.189Z,13.30
2022-10-30T06:05:23.255Z,13.20
2022-10-30T06:07:53.349Z,13.20
2022-10-30T06:10:26.286Z,13.20
2022-10-30T06:13:04.458Z,13.10
2022-10-30T06:15:37.838Z,13.20
2022-10-30T06:18:08.368Z,13.10
2022-10-30T06:20:38.763Z,13.00
2022-10-30T06:23:12.342Z,13.00
2022-10-30T06:25:45.032Z,13.00
2022-10-30T06:28:18.510Z,12.90
2022-10-30T06:30:48.566Z,12.90
2022-10-30T06:33:18.622Z,12.90
2022-10-30T06:35:50.967Z,12.80
2022-10-30T06:38:21.040Z,12.90
2022-10-30T06:40:59.865Z,12.90
2022-10-30T06:43:29.973Z,12.80
2022-10-30T06:46:01.073Z,12.80
2022-10-30T06:48:36.943Z,12.90
2022-10-30T06:51:22.624Z,12.90
2022-10-30T06:53:52.654Z,12.90
2022-10-30T06:56:30.539Z,12.80
2022-10-30T06:59:03.690Z,12.80
2022-10-30T07:01:33.874Z,12.90
2022-10-30T07:04:06.823Z,13.20
2022-10-30T07:06:36.911Z,13.40
2022-10-30T07:09:09.535Z,13.40
2022-10-30T07:11:45.931Z,13.40
2022-10-30T07:14:16.042Z,13.50
2022-10-30T07:16:46.131Z,13.50
2022-10-30T07:19:16.409Z,13.50
2022-10-30T07:21:46.598Z,13.50
2022-10-30T07:24:16.813Z,13.80
2022-10-30T07:26:49.615Z,13.90
2022-10-30T07:29:19.718Z,13.80
2022-10-30T07:32:02.324Z,13.90
2022-10-30T07:34:34.513Z,14.10
2022-10-30T07:37:04.609Z,14.60
2022-10-30T07:39:34.803Z,15.80
2022-10-30T07:42:07.725Z,17.30
2022-10-30T07:44:46.560Z,19.10
2022-10-30T07:47:16.671Z,19.70
2022-10-30T07:49:46.758Z,20.50
2022-10-30T07:52:25.923Z,21.00
2022-10-30T07:54:56.175Z,21.50
2022-10-30T07:57:34.134Z,22.10
2022-10-30T08:00:04.859Z,23.10
2022-10-30T08:02:35.671Z,23.40
2022-10-30T08:05:09.539Z,23.50
2022-10-30T08:07:44.383Z,23.40
2022-10-30T08:10:14.581Z,24.10
2022-10-30T08:12:48.256Z,24.80
2022-10-30T08:15:18.769Z,25.30
2022-10-30T08:17:51.826Z,25.30
2022-10-30T08:20:26.058Z,24.50
2022-10-30T08:22:59.333Z,24.40
2022-10-30T08:25:32.780Z,24.40
2022-10-30T08:28:08.574Z,24.10
2022-10-30T08:30:40.926Z,23.80
2022-10-30T08:33:16.503Z,24.30
2022-10-30T08:35:56.520Z,25.10
2022-10-30T08:38:27.439Z,25.50
2022-10-30T08:41:05.461Z,25.40
2022-10-30T08:43:40.179Z,24.70
2022-10-30T08:46:10.274Z,24.60
2022-10-30T08:48:49.595Z,24.30
2022-10-30T08:51:19.895Z,24.50
2022-10-30T08:53:51.894Z,24.70
2022-10-30T08:56:22.130Z,24.80
2022-10-30T08:58:55.079Z,25.40
2022-10-30T09:01:25.286Z,25.50
2022-10-30T09:03:58.372Z,25.40
2022-10-30T09:06:30.020Z,26.10
2022-10-30T09:09:00.155Z,26.40
2022-10-30T09:11:30.217Z,27.10
2022-10-30T09:14:05.886Z,27.20
2022-10-30T09:16:36.088Z,27.40
2022-10-30T09:19:09.300Z,27.90
2022-10-30T09:21:39.426Z,28.30
2022-10-30T09:24:10.909Z,28.00
2022-10-30T09:26:40.999Z,27.60
2022-10-30T09:29:13.732Z,28.30
2022-10-30T09:31:43.795Z,28.50
2022-10-30T09:34:14.027Z,29.10
2022-10-30T09:36:46.258Z,29.00
2022-10-30T09:39:18.989Z,28.60
2022-10-30T09:42:21.068Z,28.40
2022-10-30T09:45:30.802Z,29.00
2022-10-30T09:48:20.344Z,29.80
2022-10-30T09:51:05.059Z,29.30
2022-10-30T09:53:51.549Z,29.00
2022-10-30T09:56:32.092Z,28.40
2022-10-30T09:59:23.043Z,28.90
2022-10-30T10:02:04.002Z,29.30
2022-10-30T10:04:45.821Z,29.10
2022-10-30T10:07:26.707Z,28.90
2022-10-30T10:10:05.904Z,28.60
2022-10-30T10:12:43.548Z,28.30
2022-10-30T10:15:26.451Z,28.50
2022-10-30T10:18:02.032Z,27.80
2022-10-30T10:20:47.525Z,27.70
2022-10-30T10:23:22.457Z,27.60
2022-10-30T10:25:57.703Z,27.40
2022-10-30T10:28:57.348Z,27.50
2022-10-30T10:31:52.992Z,27.50
2022-10-30T10:34:55.401Z,27.80
2022-10-30T10:37:42.704Z,28.40
2022-10-30T10:40:35.618Z,28.20
2022-10-30T10:43:23.376Z,28.30
2022-10-30T10:46:14.393Z,28.20
2022-10-30T10:49:04.567Z,28.70
2022-10-30T10:51:43.335Z,28.50
2022-10-30T10:54:19.386Z,28.40
2022-10-30T10:56:56.770Z,28.10
2022-10-30T10:59:37.427Z,27.90
2022-10-30T11:02:43.093Z,27.30
2022-10-30T11:05:31.606Z,27.50
2022-10-30T11:08:15.299Z,27.50
2022-10-30T11:10:45.736Z,27.30
2022-10-30T11:13:16.867Z,27.00
2022-10-30T11:16:07.439Z,26.80
2022-10-30T11:18:38.876Z,26.70
2022-10-30T11:21:14.636Z,26.90
2022-10-30T11:23:50.048Z,27.20
2022-10-30T11:26:37.491Z,26.90
2022-10-30T11:29:17.394Z,27.00
2022-10-30T11:32:04.400Z,27.00
2022-10-30T11:34:40.005Z,27.20
2022-10-30T11:37:36.716Z,26.70
2022-10-30T11:40:20.843Z,26.90
2022-10-30T11:42:59.626Z,27.10
2022-10-30T11:45:37.003Z,27.00
2022-10-30T11:48:21.338Z,26.80
2022-10-30T11:51:00.049Z,26.60
2022-10-30T11:53:39.987Z,26.30
2022-10-30T11:56:24.904Z,26.10
2022-10-30T12:02:02.927Z,25.80
2022-10-30T12:04:34.696Z,25.80
2022-10-30T12:07:20.511Z,25.80
2022-10-30T12:09:51.501Z,25.70
2022-10-30T12:12:34.243Z,25.80
2022-10-30T12:15:21.150Z,25.70
2022-10-30T12:17:57.203Z,25.60
2022-10-30T12:20:27.620Z,25.40
2022-10-30T12:22:58.884Z,25.20
2022-10-30T12:25:34.037Z,25.10
2022-10-30T12:28:15.633Z,25.00
2022-10-30T12:30:56.180Z,24.80
2022-10-30T12:33:34.436Z,24.50
2022-10-30T12:36:12.894Z,24.40
2022-10-30T12:38:50.630Z,24.20
2022-10-30T12:41:28.050Z,24.10
2022-10-30T12:44:16.682Z,24.10
2022-10-30T12:46:54.175Z,24.00
2022-10-30T12:49:33.934Z,23.90
2022-10-30T12:52:22.737Z,24.00
2022-10-30T12:55:05.101Z,23.90
2022-10-30T12:57:41.394Z,23.90
2022-10-30T13:00:20.414Z,23.80
2022-10-30T13:03:02.914Z,23.80
2022-10-30T13:05:43.738Z,23.70
2022-10-30T13:08:28.652Z,23.60
2022-10-30T13:11:12.395Z,23.50
2022-10-30T13:13:49.878Z,23.30
2022-10-30T13:16:36.033Z,23.30
2022-10-30T13:19:08.764Z,23.20
2022-10-30T13:21:49.083Z,23.10
2022-10-30T13:24:26.317Z,23.00
2022-10-30T13:27:01.430Z,22.90
2022-10-30T13:29:42.408Z,22.80
2022-10-30T13:32:38.407Z,22.70
2022-10-30T13:35:32.127Z,22.70
2022-10-30T13:38:21.042Z,22.60
2022-10-30T13:41:01.776Z,22.60
2022-10-30T13:43:44.230Z,22.50
2022-10-30T13:46:53.535Z,22.40
2022-10-30T13:49:51.483Z,22.50
2022-10-30T13:55:29.615Z,22.30
2022-10-30T13:58:11.758Z,22.30
2022-10-30T14:01:03.126Z,22.10
2022-10-30T14:03:56.606Z,22.10
2022-10-30T14:06:42.182Z,22.00
2022-10-30T14:09:30.210Z,21.90
2022-10-30T14:12:04.836Z,21.80
2022-10-30T14:14:36.307Z,21.80
2022-10-30T14:17:20.856Z,21.80
2022-10-30T14:20:30.802Z,21.70
2022-10-30T14:23:18.514Z,21.60
2022-10-30T14:26:22.141Z,21.50
2022-10-30T14:28:57.701Z,21.50
2022-10-30T14:31:41.781Z,21.40
2022-10-30T14:34:44.619Z,21.30
2022-10-30T14:37:16.511Z,21.30
2022-10-30T14:39:54.355Z,21.30
2022-10-30T14:42:30.866Z,21.20
2022-10-30T14:45:18.326Z,21.10
2022-10-30T14:48:04.247Z,21.00
2022-10-30T14:50:49.502Z,21.00
2022-10-30T14:53:49.155Z,20.90
2022-10-30T14:56:43.898Z,20.90
2022-10-30T14:59:27.154Z,20.90
2022-10-30T15:02:23.578Z,20.80
2022-10-30T15:05:20.409Z,20.80
2022-10-30T15:08:00.354Z,20.70
2022-10-30T15:10:36.189Z,20.70
2022-10-30T15:13:21.119Z,20.60
2022-10-30T15:16:03.610Z,20.50
2022-10-30T15:18:34.597Z,20.50
2022-10-30T15:21:16.808Z,20.50
2022-10-30T15:24:01.239Z,20.40
2022-10-30T15:26:41.343Z,20.30
2022-10-30T15:29:23.541Z,20.30
2022-10-30T15:32:04.811Z,20.30
2022-10-30T15:34:35.990Z,20.20
2022-10-30T15:37:15.230Z,20.10
2022-10-30T15:39:45.349Z,20.00
2022-10-30T15:42:16.282Z,20.00
2022-10-30T15:44:51.888Z,19.80
2022-10-30T15:47:23.663Z,19.70
2022-10-30T15:49:57.220Z,19.60
2022-10-30T15:52:31.340Z,19.60
2022-10-30T15:55:06.048Z,19.50
2022-10-30T15:58:13.085Z,19.60
2022-10-30T16:00:42.278Z,19.50
2022-10-30T16:03:20.860Z,19.30
2022-10-30T16:05:51.392Z,19.30
2022-10-30T16:08:28.478Z,19.10
2022-10-30T16:10:59.302Z,19.00
2022-10-30T16:13:34.080Z,19.00
2022-10-30T16:16:24.589Z,18.90
2022-10-30T16:18:56.942Z,18.70
2022-10-30T16:21:31.157Z,18.60
2022-10-30T16:24:05.420Z,18.50
2022-10-30T16:26:39.514Z,18.40
2022-10-30T16:29:25.866Z,18.30
2022-10-30T16:32:03.531Z,18.20
2022-10-30T16:34:36.965Z,18.30
2022-10-30T16:37:17.651Z,18.20
2022-10-30T16:39:50.513Z,18.10
2022-10-30T16:42:24.226Z,18.10
2022-10-30T16:45:10.419Z,18.00
2022-10-30T16:47:47.964Z,17.90
2022-10-30T16:50:20.530Z,17.90
2022-10-30T16:52:53.597Z,17.80
2022-10-30T16:55:25.623Z,17.80
2022-10-30T16:58:00.314Z,17.70
2022-10-30T17:00:44.692Z,17.70
2022-10-30T17:03:17.647Z,17.70
2022-10-30T17:05:59.930Z,17.60
2022-10-30T17:08:47.297Z,17.50
2022-10-30T17:11:25.528Z,17.40
2022-10-30T17:14:05.110Z,17.30
2022-10-30T17:16:42.808Z,17.20
2022-10-30T17:19:50.166Z,17.10
2022-10-30T17:22:26.475Z,17.10
2022-10-30T17:24:57.799Z,17.10
2022-10-30T17:27:49.479Z,17.10
2022-10-30T17:30:47.931Z,17.10
2022-10-30T17:33:45.363Z,17.20
2022-10-30T17:36:18.115Z,17.20
2022-10-30T17:38:48.182Z,17.20
2022-10-30T17:41:18.338Z,17.10
2022-10-30T17:43:54.776Z,17.00
2022-10-30T17:46:25.246Z,16.90
2022-10-30T17:48:55.395Z,16.80
2022-10-30T17:51:29.328Z,16.80
2022-10-30T17:53:59.413Z,16.80
2022-10-30T17:56:34.309Z,16.60
2022-10-30T17:59:04.451Z,16.50
2022-10-30T18:01:34.618Z,16.40
2022-10-30T18:04:05.026Z,16.40
2022-10-30T18:06:37.854Z,16.30
2022-10-30T18:09:07.912Z,16.30
2022-10-30T18:11:40.776Z,16.40
2022-10-30T18:14:14.546Z,16.40
2022-10-30T18:16:44.637Z,16.40
2022-10-30T18:19:15.011Z,16.40
2022-10-30T18:21:51.832Z,16.40
2022-10-30T18:24:22.166Z,16.40
2022-10-30T18:26:53.872Z,16.40
2022-10-30T18:29:24.201Z,16.40
2022-10-30T18:31:54.315Z,16.50
2022-10-30T18:34:24.694Z,16.50
2022-10-30T18:36:58.565Z,16.60
2022-10-30T18:39:28.675Z,16.50
2022-10-30T18:41:58.875Z,16.50
2022-10-30T18:44:31.291Z,16.50
2022-10-30T18:47:03.218Z,16.50
2022-10-30T18:49:41.998Z,16.40
2022-10-30T18:52:14.759Z,16.40
2022-10-30T18:54:47.375Z,16.40
2022-10-30T18:57:23.451Z,16.40
2022-10-30T18:59:53.581Z,16.30
2022-10-30T19:02:26.766Z,16.30
2022-10-30T19:04:57.044Z,16.20
2022-10-30T19:07:32.075Z,16.20
2022-10-30T19:10:02.161Z,16.20
2022-10-30T19:12:33.519Z,16.20
2022-10-30T19:15:15.293Z,16.20
2022-10-30T19:17:48.687Z,16.20
2022-10-30T19:20:24.816Z,16.30
2022-10-30T19:23:06.607Z,16.30
2022-10-30T19:25:44.373Z,16.30
2022-10-30T19:28:19.762Z,16.10
2022-10-30T19:30:54.890Z,16.00
2022-10-30T19:33:29.352Z,16.00
2022-10-30T19:36:01.915Z,16.10
2022-10-30T19:38:35.738Z,16.00
2022-10-30T19:41:06.630Z,16.00
2022-10-30T19:43:48.910Z,16.00
2022-10-30T19:46:19.054Z,16.00
2022-10-30T19:48:58.146Z,16.00
2022-10-30T19:51:29.437Z,15.90
2022-10-30T19:54:11.595Z,15.90
2022-10-30T19:56:43.099Z,15.90
2022-10-30T19:59:15.847Z,15.80
2022-10-30T20:01:46.385Z,15.70
2022-10-30T20:04:19.571Z,15.60
2022-10-30T20:06:49.690Z,15.60
2022-10-30T20:09:22.441Z,15.50
2022-10-30T20:11:52.815Z,15.50
2022-10-30T20:14:22.907Z,15.40
2022-10-30T20:16:55.296Z,15.30
2022-10-30T20:19:32.653Z,15.30
2022-10-30T20:22:02.772Z,15.30
2022-10-30T20:24:35.473Z,15.30
2022-10-30T20:27:14.223Z,15.40
2022-10-30T20:29:50.209Z,15.40
2022-10-30T20:32:20.639Z,15.40
2022-10-30T20:34:59.630Z,15.30
2022-10-30T20:37:29.839Z,15.20
2022-10-30T20:40:06.550Z,15.10
2022-10-30T20:42:37.476Z,15.00
2022-10-30T20:45:09.706Z,15.00
2022-10-30T20:47:39.831Z,15.00
2022-10-30T20:50:11.335Z,15.00
2022-10-30T20:52:45.166Z,15.00
2022-10-30T20:55:18.604Z,15.10
2022-10-30T20:57:48.716Z,15.10
2022-10-30T21:00:21.694Z,15.00
2022-10-30T21:02:54.545Z,14.90
2022-10-30T21:05:43.327Z,14.80
2022-10-30T21:08:15.285Z,14.70
2022-10-30T21:10:47.966Z,14.60
2022-10-30T21:13:18.044Z,14.50
2022-10-30T21:15:48.161Z,14.40
2022-10-30T21:18:18.284Z,14.30
2022-10-30T21:20:48.449Z,14.20
2022-10-30T21:23:18.570Z,14.20
2022-10-30T21:25:53.830Z,14.20
2022-10-30T21:28:23.951Z,14.20
2022-10-30T21:30:59.773Z,14.10
2022-10-30T21:33:45.828Z,14.10
2022-10-30T21:36:20.989Z,14.00
2022-10-30T21:38:56.593Z,14.00
2022-10-30T21:41:29.515Z,14.00
2022-10-30T21:44:02.126Z,14.00
2022-10-30T21:46:35.656Z,14.00
2022-10-30T21:49:10.607Z,14.00
2022-10-30T21:51:42.435Z,14.00
2022-10-30T21:54:12.494Z,13.90
2022-10-30T21:56:45.184Z,13.80
2022-10-30T21:59:18.695Z,13.80
2022-10-30T22:01:51.695Z,13.80
2022-10-30T22:04:21.898Z,13.90
2022-10-30T22:06:52.032Z,14.00
2022-10-30T22:09:22.258Z,14.00
2022-10-30T22:11:58.060Z,14.00
2022-10-30T22:14:34.250Z,14.00
2022-10-30T22:17:04.387Z,14.00
2022-10-30T22:19:36.737Z,14.00
2022-10-30T22:22:06.984Z,14.00
2022-10-30T22:24:42.674Z,14.00
2022-10-30T22:27:15.380Z,14.00
2022-10-30T22:29:45.495Z,14.00
2022-10-30T22:32:16.155Z,14.00
2022-10-30T22:34:49.406Z,14.00
2022-10-30T22:37:24.871Z,14.10
2022-10-30T22:39:55.046Z,14.00
2022-10-30T22:42:27.763Z,14.00
2022-10-30T22:44:57.895Z,14.00
2022-10-30T22:47:27.988Z,13.90
2022-10-30T22:49:58.029Z,13.80
2022-10-30T22:52:30.421Z,13.80
2022-10-30T22:55:03.357Z,13.70
2022-10-30T22:57:36.098Z,13.60
2022-10-30T23:00:07.796Z,13.50
2022-10-30T23:02:37.931Z,13.50
2022-10-30T23:05:08.916Z,13.40
2022-10-30T23:07:39.014Z,13.40
2022-10-30T23:10:13.192Z,13.40
2022-10-30T23:12:48.376Z,13.30
2022-10-30T23:15:18.739Z,13.40
2022-10-30T23:17:51.159Z,13.20
2022-10-30T23:20:21.537Z,13.30
2022-10-30T23:22:51.726Z,13.20
2022-10-30T23:25:21.890Z,13.20
2022-10-30T23:27:58.663Z,13.10
2022-10-30T23:30:29.220Z,13.10
2022-10-30T23:32:59.580Z,13.10
2022-10-30T23:35:30.038Z,13.10
2022-10-30T23:38:03.042Z,13.20
2022-10-30T23:40:35.918Z,13.20
2022-10-30T23:43:08.593Z,13.30
2022-10-30T23:45:41.327Z,13.40
2022-10-30T23:48:11.470Z,13.40
2022-10-30T23:50:44.197Z,13.40
2022-10-30T23:53:14.277Z,13.30
2022-10-30T23:55:52.593Z,13.10
2022-10-30T23:58:25.374Z,13.00
